createdAt,value
2022-10-23T00:01:13.879Z,17.10
2022-10-23T00:03:42.142Z,16.51
2022-10-23T00:06:10.564Z,16.52
2022-10-23T00:08:39.002Z,16.64
2022-10-23T00:11:08.795Z,16.83
2022-10-23T00:13:38.518Z,16.92
2022-10-23T00:16:07.534Z,16.61
2022-10-23T00:18:36.240Z,16.57
2022-10-23T00:21:05.024Z,16.54
2022-10-23T00:23:33.164Z,16.45
2022-10-23T00:26:01.570Z,16.37
2022-10-23T00:28:30.193Z,16.55
2022-10-23T00:31:04.172Z,16.99
2022-10-23T00:33:33.169Z,16.73
2022-10-23T00:36:01.550Z,16.48
2022-10-23T00:38:32.578Z,16.68
2022-10-23T00:41:00.912Z,16.61
2022-10-23T00:43:32.996Z,17.17
2022-10-23T00:46:03.127Z,17.03
2022-10-23T00:48:31.433Z,16.60
2022-10-23T00:50:59.937Z,16.52
2022-10-23T00:53:28.049Z,16.42
2022-10-23T00:55:57.751Z,16.44
2022-10-23T00:58:25.934Z,16.33
2022-10-23T01:00:56.213Z,16.55
2022-10-23T01:03:29.653Z,16.62
2022-10-23T01:06:01.776Z,16.49
2022-10-23T01:08:33.780Z,16.45
2022-10-23T01:11:08.154Z,16.33
2022-10-23T01:13:41.306Z,16.26
2022-10-23T01:16:15.998Z,16.23
2022-10-23T01:18:50.220Z,16.17
2022-10-23T01:21:20.226Z,16.12
2022-10-23T01:24:11.153Z,16.57
2022-10-23T01:26:48.779Z,16.40
2022-10-23T01:29:21.410Z,16.43
2022-10-23T01:31:52.374Z,16.29
2022-10-23T01:34:24.764Z,16.32
2022-10-23T01:36:54.073Z,16.15
2022-10-23T01:39:24.811Z,16.28
2022-10-23T01:41:55.622Z,16.18
2022-10-23T01:44:28.065Z,16.31
2022-10-23T01:46:57.185Z,16.05
2022-10-23T01:49:25.680Z,15.80
2022-10-23T01:51:56.625Z,16.05
2022-10-23T01:54:27.847Z,16.15
2022-10-23T01:56:55.954Z,16.74
2022-10-23T01:59:28.558Z,16.09
2022-10-23T02:01:58.507Z,15.78
2022-10-23T02:04:29.383Z,15.77
2022-10-23T02:06:57.989Z,15.45
2022-10-23T02:09:26.129Z,15.44
2022-10-23T02:11:59.383Z,15.84
2022-10-23T02:14:38.460Z,15.95
2022-10-23T02:17:12.365Z,15.78
2022-10-23T02:19:45.410Z,15.59
2022-10-23T02:22:16.279Z,15.47
2022-10-23T02:24:48.047Z,15.36
2022-10-23T02:27:18.773Z,15.23
2022-10-23T02:29:49.940Z,15.31
2022-10-23T02:32:18.084Z,15.76
2022-10-23T02:34:46.173Z,14.61
2022-10-23T02:37:14.610Z,14.60
2022-10-23T02:39:43.056Z,14.78
2022-10-23T02:42:15.829Z,15.15
2022-10-23T02:44:51.776Z,15.20
2022-10-23T02:47:31.464Z,15.42
2022-10-23T02:50:06.396Z,15.33
2022-10-23T02:52:38.426Z,15.25
2022-10-23T02:55:15.300Z,15.44
2022-10-23T02:57:46.386Z,15.62
2022-10-23T03:00:18.294Z,15.69
2022-10-23T03:02:49.471Z,15.64
2022-10-23T03:05:18.579Z,16.32
2022-10-23T03:07:47.469Z,15.50
2022-10-23T03:10:16.386Z,15.40
2022-10-23T03:12:44.809Z,15.29
2022-10-23T03:15:13.555Z,15.39
2022-10-23T03:17:42.964Z,15.70
2022-10-23T03:20:12.557Z,15.64
2022-10-23T03:22:41.462Z,15.51
2022-10-23T03:25:10.798Z,15.45
2022-10-23T03:27:38.976Z,15.44
2022-10-23T03:30:08.786Z,15.56
2022-10-23T03:32:36.924Z,15.42
2022-10-23T03:35:07.668Z,15.92
2022-10-23T03:37:35.865Z,15.39
2022-10-23T03:40:04.653Z,15.32
2022-10-23T03:42:32.704Z,15.11
2022-10-23T03:45:01.152Z,15.09
2022-10-23T03:47:30.497Z,15.30
2022-10-23T03:49:59.089Z,15.62
2022-10-23T03:52:28.713Z,15.90
2022-10-23T03:54:57.113Z,15.59
2022-10-23T03:57:25.432Z,15.62
2022-10-23T03:59:53.695Z,15.70
2022-10-23T04:02:21.929Z,15.63
2022-10-23T04:04:50.288Z,15.54
2022-10-23T04:07:18.471Z,15.48
2022-10-23T04:09:48.234Z,15.96
2022-10-23T04:12:16.490Z,15.57
2022-10-23T04:14:44.796Z,15.72
2022-10-23T04:17:13.046Z,15.82
2022-10-23T04:19:41.320Z,15.77
2022-10-23T04:22:09.547Z,15.79
2022-10-23T04:24:37.943Z,15.83
2022-10-23T04:27:07.476Z,16.13
2022-10-23T04:29:35.807Z,15.78
2022-10-23T04:32:03.992Z,15.76
2022-10-23T04:34:32.286Z,15.65
2022-10-23T04:37:00.449Z,15.59
2022-10-23T04:39:28.733Z,15.49
2022-10-23T04:41:56.907Z,15.48
2022-10-23T04:44:26.786Z,15.82
2022-10-23T04:46:54.882Z,15.36
2022-10-23T04:49:23.246Z,15.45
2022-10-23T04:51:51.673Z,15.36
2022-10-23T04:54:19.761Z,15.32
2022-10-23T04:56:48.077Z,15.28
2022-10-23T04:59:16.403Z,15.42
2022-10-23T05:01:46.211Z,15.62
2022-10-23T05:04:14.402Z,15.26
2022-10-23T05:06:42.731Z,15.36
2022-10-23T05:09:10.789Z,15.29
2022-10-23T05:11:38.876Z,15.45
2022-10-23T05:14:07.412Z,15.49
2022-10-23T05:16:38.338Z,15.96
2022-10-23T05:19:09.835Z,15.99
2022-10-23T05:21:38.891Z,15.99
2022-10-23T05:24:07.841Z,15.73
2022-10-23T05:26:36.051Z,15.67
2022-10-23T05:29:04.601Z,15.60
2022-10-23T05:31:34.246Z,16.05
2022-10-23T05:34:02.790Z,15.74
2022-10-23T05:36:32.427Z,16.10
2022-10-23T05:39:00.859Z,15.79
2022-10-23T05:41:28.955Z,15.69
2022-10-23T05:43:57.378Z,15.58
2022-10-23T05:46:25.541Z,15.73
2022-10-23T05:48:54.278Z,15.80
2022-10-23T05:51:23.306Z,15.97
2022-10-23T05:53:53.937Z,16.27
2022-10-23T05:56:22.159Z,16.01
2022-10-23T05:58:50.366Z,15.98
2022-10-23T06:01:18.973Z,16.06
2022-10-23T06:03:47.479Z,15.99
2022-10-23T06:06:17.901Z,16.05
2022-10-23T06:08:46.222Z,16.11
2022-10-23T06:11:16.734Z,16.53
2022-10-23T06:13:45.831Z,16.22
2022-10-23T06:16:15.842Z,16.36
2022-10-23T06:18:44.690Z,16.12
2022-10-23T06:21:13.545Z,16.19
2022-10-23T06:23:42.759Z,16.18
2022-10-23T06:26:12.617Z,16.30
2022-10-23T06:28:42.377Z,16.47
2022-10-23T06:31:12.147Z,16.37
2022-10-23T06:33:40.562Z,16.11
2022-10-23T06:36:10.853Z,16.34
2022-10-23T06:38:40.658Z,16.30
2022-10-23T06:41:12.679Z,16.40
2022-10-23T06:43:42.375Z,16.63
2022-10-23T06:46:10.949Z,16.23
2022-10-23T06:48:39.503Z,16.12
2022-10-23T06:51:08.745Z,16.46
2022-10-23T06:53:37.536Z,16.33
2022-10-23T06:56:07.504Z,16.44
2022-10-23T06:58:36.446Z,16.48
2022-10-23T07:01:07.808Z,16.78
2022-10-23T07:03:36.544Z,16.66
2022-10-23T07:06:05.922Z,16.84
2022-10-23T07:08:33.977Z,16.94
2022-10-23T07:11:05.447Z,17.47
2022-10-23T07:13:34.359Z,17.46
2022-10-23T07:16:12.398Z,18.01
2022-10-23T07:18:40.639Z,17.56
2022-10-23T07:21:08.995Z,17.71
2022-10-23T07:23:37.339Z,17.76
2022-10-23T07:26:07.827Z,18.17
2022-10-23T07:28:36.230Z,17.90
2022-10-23T07:31:04.836Z,18.13
2022-10-23T07:33:34.500Z,18.27
2022-10-23T07:36:04.732Z,18.01
2022-10-23T07:38:32.919Z,18.18
2022-10-23T07:41:01.408Z,18.30
2022-10-23T07:43:30.119Z,18.72
2022-10-23T07:45:58.526Z,19.62
2022-10-23T07:48:27.662Z,20.48
2022-10-23T07:51:01.004Z,21.95
2022-10-23T07:53:29.834Z,22.48
2022-10-23T07:56:00.022Z,23.02
2022-10-23T07:58:28.679Z,22.33
2022-10-23T08:00:58.937Z,22.06
2022-10-23T08:03:27.418Z,22.36
2022-10-23T08:05:57.531Z,23.19
2022-10-23T08:08:26.745Z,22.96
2022-10-23T08:10:56.312Z,22.50
2022-10-23T08:13:24.581Z,21.52
2022-10-23T08:15:53.828Z,21.35
2022-10-23T08:18:21.820Z,20.81
2022-10-23T08:20:52.526Z,20.32
2022-10-23T08:23:22.030Z,20.13
2022-10-23T08:25:50.353Z,19.69
2022-10-23T08:28:18.551Z,19.36
2022-10-23T08:30:47.055Z,19.39
2022-10-23T08:33:15.198Z,19.34
2022-10-23T08:35:43.621Z,19.31
2022-10-23T08:38:12.223Z,19.20
2022-10-23T08:40:45.453Z,19.64
2022-10-23T08:43:17.443Z,19.64
2022-10-23T08:45:47.869Z,19.56
2022-10-23T08:48:22.391Z,19.70
2022-10-23T08:50:52.456Z,19.48
2022-10-23T08:53:23.853Z,19.59
2022-10-23T08:55:57.698Z,19.59
2022-10-23T08:58:32.105Z,19.46
2022-10-23T09:01:00.563Z,19.03
2022-10-23T09:03:28.711Z,19.12
2022-10-23T09:06:05.932Z,19.99
2022-10-23T09:08:41.686Z,20.47
2022-10-23T09:11:14.746Z,20.60
2022-10-23T09:14:18.034Z,21.02
2022-10-23T09:16:53.631Z,20.51
2022-10-23T09:19:26.409Z,20.42
2022-10-23T09:21:55.664Z,20.43
2022-10-23T09:24:25.630Z,20.73
2022-10-23T09:26:55.701Z,20.67
2022-10-23T09:29:26.535Z,20.75
2022-10-23T09:31:56.335Z,20.62
2022-10-23T09:34:26.194Z,20.84
2022-10-23T09:39:27.638Z,20.47
2022-10-23T09:41:57.502Z,20.29
2022-10-23T09:44:27.235Z,20.15
2022-10-23T09:46:57.199Z,20.03
2022-10-23T09:49:26.600Z,19.78
2022-10-23T09:52:00.420Z,19.80
2022-10-23T09:54:29.378Z,19.52
2022-10-23T09:57:03.460Z,20.00
2022-10-23T09:59:32.548Z,19.97
2022-10-23T10:02:04.085Z,20.18
2022-10-23T10:04:33.745Z,20.31
2022-10-23T10:07:03.079Z,20.37
2022-10-23T10:09:31.137Z,20.80
2022-10-23T10:12:09.777Z,22.41
2022-10-23T10:14:48.165Z,23.35
2022-10-23T10:17:22.084Z,24.59
2022-10-23T10:20:07.067Z,25.80
2022-10-23T10:22:41.420Z,26.98
2022-10-23T10:25:13.390Z,27.98
2022-10-23T10:27:49.222Z,28.70
2022-10-23T10:30:21.273Z,30.04
2022-10-23T10:32:54.594Z,31.36
2022-10-23T10:35:30.343Z,31.97
2022-10-23T10:38:13.885Z,33.22
2022-10-23T10:40:44.399Z,34.05
2022-10-23T10:43:24.641Z,35.17
2022-10-23T10:45:58.790Z,35.17
2022-10-23T10:48:43.648Z,35.23
2022-10-23T10:51:16.733Z,35.22
2022-10-23T10:53:54.825Z,36.06
2022-10-23T10:56:24.537Z,36.50
2022-10-23T10:58:55.782Z,37.33
2022-10-23T11:01:27.172Z,38.09
2022-10-23T11:03:57.966Z,38.28
2022-10-23T11:06:29.945Z,38.27
2022-10-23T11:09:19.370Z,37.89
2022-10-23T11:11:49.286Z,37.34
2022-10-23T11:14:20.868Z,37.77
2022-10-23T11:16:51.302Z,38.10
2022-10-23T11:19:23.773Z,38.18
2022-10-23T11:21:58.817Z,37.33
2022-10-23T11:25:03.452Z,35.94
2022-10-23T11:27:49.633Z,33.98
2022-10-23T11:30:25.397Z,32.76
2022-10-23T11:33:29.823Z,32.64
2022-10-23T11:36:14.183Z,31.70
2022-10-23T11:38:44.267Z,30.22
2022-10-23T11:41:23.865Z,29.16
2022-10-23T11:43:57.198Z,28.03
2022-10-23T11:46:35.179Z,27.61
2022-10-23T11:49:06.139Z,26.72
2022-10-23T11:51:36.457Z,26.67
2022-10-23T11:54:22.430Z,26.64
2022-10-23T11:56:57.408Z,26.27
2022-10-23T11:59:29.163Z,25.86
2022-10-23T12:02:00.521Z,25.33
2022-10-23T12:04:29.407Z,25.68
2022-10-23T12:07:00.542Z,24.76
2022-10-23T12:09:33.162Z,24.69
2022-10-23T12:12:26.607Z,24.84
2022-10-23T12:14:54.961Z,23.96
2022-10-23T12:17:37.053Z,24.35
2022-10-23T12:20:20.543Z,24.08
2022-10-23T12:22:57.992Z,23.61
2022-10-23T12:25:29.357Z,23.43
2022-10-23T12:28:05.666Z,23.42
2022-10-23T12:30:41.166Z,23.17
2022-10-23T12:33:17.185Z,23.00
2022-10-23T12:35:59.670Z,22.78
2022-10-23T12:38:33.798Z,22.33
2022-10-23T12:41:11.168Z,22.54
2022-10-23T12:43:41.278Z,22.12
2022-10-23T12:46:23.635Z,22.62
2022-10-23T12:48:56.664Z,22.49
2022-10-23T12:51:26.294Z,22.40
2022-10-23T12:53:54.810Z,22.27
2022-10-23T12:56:23.185Z,22.30
2022-10-23T12:58:53.658Z,22.47
2022-10-23T13:01:27.430Z,22.62
2022-10-23T13:04:03.613Z,22.58
2022-10-23T13:06:34.868Z,22.08
2022-10-23T13:09:03.376Z,22.31
2022-10-23T13:11:32.405Z,22.39
2022-10-23T13:14:01.829Z,22.27
2022-10-23T13:16:29.957Z,22.21
2022-10-23T13:18:58.295Z,22.23
2022-10-23T13:21:29.783Z,22.63
2022-10-23T13:23:58.505Z,22.20
2022-10-23T13:26:36.806Z,22.84
2022-10-23T13:29:09.539Z,22.27
2022-10-23T13:31:38.221Z,22.37
2022-10-23T13:34:16.358Z,22.64
2022-10-23T13:36:57.946Z,22.79
2022-10-23T13:39:28.503Z,22.39
2022-10-23T13:41:56.773Z,21.97
2022-10-23T13:44:26.751Z,22.18
2022-10-23T13:46:54.895Z,21.94
2022-10-23T13:49:23.220Z,21.78
2022-10-23T13:51:54.767Z,22.18
2022-10-23T13:54:25.232Z,22.07
2022-10-23T13:56:55.233Z,22.24
2022-10-23T13:59:24.197Z,21.87
2022-10-23T14:01:52.998Z,21.78
2022-10-23T14:04:21.794Z,21.84
2022-10-23T14:06:49.885Z,21.38
2022-10-23T14:09:20.107Z,21.76
2022-10-23T14:11:48.268Z,21.24
2022-10-23T14:14:16.622Z,21.14
2022-10-23T14:16:44.897Z,21.10
2022-10-23T14:19:13.484Z,20.86
2022-10-23T14:21:41.922Z,20.85
2022-10-23T14:24:10.337Z,20.90
2022-10-23T14:26:39.896Z,21.13
2022-10-23T14:29:10.320Z,20.74
2022-10-23T14:31:42.135Z,20.72
2022-10-23T14:34:10.678Z,20.72
2022-10-23T14:36:50.499Z,20.61
2022-10-23T14:39:24.906Z,20.75
2022-10-23T14:41:54.621Z,21.05
2022-10-23T14:44:23.055Z,20.47
2022-10-23T14:46:52.174Z,20.42
2022-10-23T14:49:20.749Z,20.35
2022-10-23T14:51:48.898Z,20.29
2022-10-23T14:54:17.602Z,20.33
2022-10-23T14:56:45.687Z,20.16
2022-10-23T14:59:15.777Z,20.53
2022-10-23T15:01:47.367Z,20.37
2022-10-23T15:04:18.614Z,20.45
2022-10-23T15:06:47.270Z,20.02
2022-10-23T15:09:15.978Z,20.07
2022-10-23T15:11:44.153Z,19.95
2022-10-23T15:14:12.724Z,20.01
2022-10-23T15:16:42.379Z,20.36
2022-10-23T15:19:15.120Z,20.00
2022-10-23T15:21:46.556Z,19.80
2022-10-23T15:24:14.881Z,19.63
2022-10-23T15:26:43.812Z,19.53
2022-10-23T15:29:15.267Z,19.88
2022-10-23T15:31:48.464Z,20.51
2022-10-23T15:34:19.575Z,19.80
2022-10-23T15:36:48.275Z,19.59
2022-10-23T15:39:19.221Z,19.74
2022-10-23T15:41:47.391Z,19.35
2022-10-23T15:44:16.913Z,19.45
2022-10-23T15:46:45.358Z,19.18
2022-10-23T15:49:15.459Z,19.52
2022-10-23T15:51:44.437Z,19.20
2022-10-23T15:54:17.088Z,19.30
2022-10-23T15:56:45.415Z,19.01
2022-10-23T15:59:13.956Z,18.97
2022-10-23T16:01:42.519Z,18.95
2022-10-23T16:04:10.957Z,18.78
2022-10-23T16:06:40.738Z,19.02
2022-10-23T16:09:09.053Z,18.55
2022-10-23T16:11:38.872Z,18.82
2022-10-23T16:14:07.596Z,18.46
2022-10-23T16:16:36.117Z,18.44
2022-10-23T16:19:04.972Z,18.40
2022-10-23T16:21:35.311Z,18.65
2022-10-23T16:24:07.157Z,18.75
2022-10-23T16:26:36.782Z,18.66
2022-10-23T16:29:07.007Z,18.58
2022-10-23T16:31:35.583Z,18.27
2022-10-23T16:34:04.876Z,18.35
2022-10-23T16:36:32.958Z,18.20
2022-10-23T16:39:03.054Z,18.56
2022-10-23T16:41:33.407Z,18.52
2022-10-23T16:44:02.078Z,18.24
2022-10-23T16:46:30.373Z,18.17
2022-10-23T16:48:58.886Z,18.13
2022-10-23T16:51:27.935Z,18.20
2022-10-23T16:53:56.669Z,18.02
2022-10-23T16:56:27.866Z,18.01
2022-10-23T17:01:32.448Z,17.96
2022-10-23T17:04:01.342Z,17.68
2022-10-23T17:06:31.392Z,17.79
2022-10-23T17:09:00.727Z,17.70
2022-10-23T17:11:30.477Z,17.67
2022-10-23T17:14:02.379Z,17.84
2022-10-23T17:16:32.425Z,17.72
2022-10-23T17:19:02.332Z,17.39
2022-10-23T17:21:33.209Z,17.74
2022-10-23T17:26:30.457Z,17.41
2022-10-23T17:29:01.143Z,17.77
2022-10-23T17:31:31.981Z,17.82
2022-10-23T17:34:02.267Z,17.87
2022-10-23T17:36:32.005Z,17.75
2022-10-23T17:39:00.616Z,17.54
2022-10-23T17:41:29.018Z,17.43
2022-10-23T17:43:58.423Z,17.53
2022-10-23T17:46:29.419Z,17.82
2022-10-23T17:48:58.349Z,17.73
2022-10-23T17:51:28.216Z,17.72
2022-10-23T17:53:58.442Z,17.62
2022-10-23T17:56:29.175Z,17.46
2022-10-23T17:59:01.247Z,17.54
2022-10-23T18:01:31.613Z,17.45
2022-10-23T18:04:02.303Z,17.47
2022-10-23T18:06:32.205Z,17.40
2022-10-23T18:09:01.248Z,17.15
2022-10-23T18:11:32.052Z,17.26
2022-10-23T18:14:02.289Z,17.00
2022-10-23T18:16:31.917Z,17.27
2022-10-23T18:19:01.299Z,17.10
2022-10-23T18:21:30.084Z,17.03
2022-10-23T18:23:59.865Z,17.45
2022-10-23T18:26:31.524Z,17.48
2022-10-23T18:29:02.062Z,17.39
2022-10-23T18:31:31.694Z,17.65
2022-10-23T18:34:01.561Z,17.52
2022-10-23T18:36:32.025Z,17.80
2022-10-23T18:39:00.456Z,17.37
2022-10-23T18:41:28.781Z,17.13
2022-10-23T18:43:57.196Z,17.05
2022-10-23T18:46:28.648Z,17.09
2022-10-23T18:48:58.328Z,17.29
2022-10-23T18:51:29.201Z,17.25
2022-10-23T18:53:58.067Z,17.94
2022-10-23T18:56:27.864Z,17.13
2022-10-23T18:58:58.811Z,17.27
2022-10-23T19:01:29.182Z,17.25
2022-10-23T19:04:00.714Z,17.28
2022-10-23T19:06:28.962Z,17.75
2022-10-23T19:08:57.701Z,16.80
2022-10-23T19:11:27.558Z,16.92
2022-10-23T19:13:55.932Z,16.55
2022-10-23T19:16:27.509Z,16.93
2022-10-23T19:19:00.516Z,16.93
2022-10-23T19:21:32.134Z,16.85
2022-10-23T19:24:02.496Z,16.90
2022-10-23T19:26:31.443Z,16.71
2022-10-23T19:28:59.875Z,16.47
2022-10-23T19:31:28.438Z,16.44
2022-10-23T19:33:56.839Z,16.24
2022-10-23T19:36:26.314Z,16.62
2022-10-23T19:38:54.573Z,16.24
2022-10-23T19:41:23.318Z,16.33
2022-10-23T19:43:52.144Z,16.45
2022-10-23T19:46:20.201Z,16.20
2022-10-23T19:48:48.514Z,16.07
2022-10-23T19:51:16.562Z,16.17
2022-10-23T19:53:46.420Z,16.55
2022-10-23T19:56:14.768Z,16.28
2022-10-23T19:58:43.193Z,16.31
2022-10-23T20:01:13.207Z,16.67
2022-10-23T20:03:42.776Z,16.65
2022-10-23T20:06:11.777Z,16.59
2022-10-23T20:08:40.244Z,16.33
2022-10-23T20:11:10.827Z,16.65
2022-10-23T20:13:39.146Z,16.16
2022-10-23T20:16:08.079Z,16.20
2022-10-23T20:18:36.439Z,16.10
2022-10-23T20:21:04.831Z,16.08
2022-10-23T20:23:33.117Z,16.17
2022-10-23T20:26:07.867Z,16.73
2022-10-23T20:28:37.977Z,16.52
2022-10-23T20:31:08.501Z,16.33
2022-10-23T20:33:36.833Z,16.08
2022-10-23T20:36:05.770Z,16.19
2022-10-23T20:38:34.681Z,16.10
2022-10-23T20:41:05.898Z,16.02
2022-10-23T20:43:34.686Z,16.76
2022-10-23T20:46:06.553Z,16.11
2022-10-23T20:48:36.341Z,15.90
2022-10-23T20:51:04.794Z,15.70
2022-10-23T20:53:33.451Z,15.33
2022-10-23T20:56:01.805Z,15.32
2022-10-23T20:58:30.179Z,15.41
2022-10-23T21:01:03.627Z,15.87
2022-10-23T21:03:33.553Z,15.78
2022-10-23T21:06:06.153Z,15.95
2022-10-23T21:08:35.477Z,15.59
2022-10-23T21:11:03.855Z,15.60
2022-10-23T21:13:32.641Z,15.68
2022-10-23T21:16:00.935Z,15.49
2022-10-23T21:18:44.876Z,15.39
2022-10-23T21:21:17.545Z,15.78
2022-10-23T21:23:46.537Z,15.49
2022-10-23T21:26:15.700Z,15.42
2022-10-23T21:28:55.813Z,15.56
2022-10-23T21:31:29.499Z,15.27
2022-10-23T21:33:57.889Z,15.22
2022-10-23T21:36:29.290Z,15.57
2022-10-23T21:38:59.722Z,15.42
2022-10-23T21:41:29.438Z,15.28
2022-10-23T21:43:59.752Z,15.21
2022-10-23T21:46:28.674Z,15.11
2022-10-23T21:48:57.071Z,14.86
2022-10-23T21:51:29.364Z,15.30
2022-10-23T21:53:58.841Z,15.10
2022-10-23T21:56:29.960Z,15.30
2022-10-23T21:58:58.206Z,15.93
2022-10-23T22:01:26.500Z,14.93
2022-10-23T22:03:55.373Z,14.94
2022-10-23T22:06:26.105Z,15.08
2022-10-23T22:08:57.231Z,15.25
2022-10-23T22:11:25.591Z,14.83
2022-10-23T22:13:54.070Z,14.65
2022-10-23T22:16:22.315Z,14.77
2022-10-23T22:18:51.019Z,14.97
2022-10-23T22:21:20.950Z,15.04
2022-10-23T22:23:49.946Z,14.79
2022-10-23T22:26:23.518Z,15.14
2022-10-23T22:28:52.579Z,14.78
2022-10-23T22:31:23.594Z,14.99
2022-10-23T22:33:52.374Z,14.76
2022-10-23T22:36:20.895Z,14.88
2022-10-23T22:38:49.544Z,14.77
2022-10-23T22:41:18.480Z,14.98
2022-10-23T22:43:48.206Z,15.31
2022-10-23T22:46:17.848Z,15.18
2022-10-23T22:48:46.769Z,15.05
2022-10-23T22:51:16.119Z,15.19
2022-10-23T22:53:44.868Z,15.15
2022-10-23T22:56:16.098Z,15.58
2022-10-23T22:58:44.385Z,16.24
2022-10-23T23:01:17.408Z,15.67
2022-10-23T23:03:46.563Z,15.42
2022-10-23T23:06:15.118Z,15.21
2022-10-23T23:08:43.760Z,15.14
2022-10-23T23:11:13.747Z,15.33
2022-10-23T23:13:42.788Z,15.28
2022-10-23T23:16:18.948Z,15.57
2022-10-23T23:18:47.378Z,15.10
2022-10-23T23:21:15.798Z,15.02
2022-10-23T23:23:44.179Z,15.00
2022-10-23T23:26:12.454Z,14.94
2022-10-23T23:28:40.906Z,14.95
2022-10-23T23:31:11.728Z,15.39
2022-10-23T23:33:41.669Z,15.45
2022-10-23T23:36:11.942Z,15.39
2022-10-23T23:38:40.876Z,15.33
2022-10-23T23:41:12.797Z,15.69
2022-10-23T23:43:41.205Z,15.19
2022-10-23T23:46:09.822Z,15.25
2022-10-23T23:48:38.445Z,15.06
2022-10-23T23:51:07.991Z,15.23
2022-10-23T23:53:36.326Z,14.74
2022-10-23T23:56:04.516Z,14.64
2022-10-23T23:58:32.910Z,14.66
